createdAt,value
2023-04-26T00:01:05.458Z,100
2023-04-26T00:03:33.710Z,100
2023-04-26T00:06:01.968Z,100
2023-04-26T00:08:30.224Z,100
2023-04-26T00:10:58.487Z,100
2023-04-26T00:15:54.994Z,100
2023-04-26T00:18:23.250Z,100
2023-04-26T00:20:51.513Z,100
2023-04-26T00:22:06.245Z,100
2023-04-26T00:23:19.783Z,100
2023-04-26T00:25:48.044Z,100
2023-04-26T00:28:16.303Z,100
2023-04-26T00:30:44.561Z,100
2023-04-26T00:33:12.815Z,100
2023-04-26T00:35:41.078Z,99.4
2023-04-26T00:38:09.336Z,99.3
2023-04-26T00:40:37.593Z,99.4
2023-04-26T00:43:05.851Z,99.7
2023-04-26T00:46:48.832Z,99
2023-04-26T00:48:02.385Z,99.2
2023-04-26T00:50:30.633Z,99.3
2023-04-26T00:52:58.896Z,99.7
2023-04-26T00:55:27.158Z,99.4
2023-04-26T00:57:55.407Z,99.4
2023-04-26T01:00:23.669Z,99.6
2023-04-26T01:02:51.924Z,99.5
2023-04-26T01:05:20.181Z,99.4
2023-04-26T01:07:48.443Z,99.5
2023-04-26T01:10:16.695Z,99.9
2023-04-26T01:11:31.423Z,100
2023-04-26T01:12:44.972Z,99.9
2023-04-26T01:17:41.491Z,100
2023-04-26T01:20:09.743Z,99.5
2023-04-26T01:22:37.998Z,99.3
2023-04-26T01:25:06.255Z,99.2
2023-04-26T01:27:34.519Z,99.1
2023-04-26T01:30:02.772Z,99.5
2023-04-26T01:32:31.030Z,99.9
2023-04-26T01:34:59.284Z,100
2023-04-26T01:36:14.015Z,100
2023-04-26T01:37:27.566Z,100
2023-04-26T01:39:55.820Z,100
2023-04-26T01:42:24.076Z,100
2023-04-26T01:44:52.343Z,100
2023-04-26T01:49:48.851Z,100
2023-04-26T01:52:17.104Z,100
2023-04-26T01:54:45.362Z,100
2023-04-26T01:57:13.625Z,100
2023-04-26T01:59:41.883Z,100
2023-04-26T02:00:56.613Z,100
2023-04-26T02:02:10.153Z,100
2023-04-26T02:04:38.418Z,100
2023-04-26T02:07:06.667Z,100
2023-04-26T02:09:34.930Z,100
2023-04-26T02:12:03.185Z,100
2023-04-26T02:14:31.442Z,100
2023-04-26T02:16:59.695Z,100
2023-04-26T02:21:56.213Z,100
2023-04-26T02:24:24.470Z,99.8
2023-04-26T02:25:39.203Z,100
2023-04-26T02:26:52.748Z,100
2023-04-26T02:29:20.999Z,100
2023-04-26T02:31:49.260Z,100
2023-04-26T02:34:17.512Z,100
2023-04-26T02:36:45.774Z,100
2023-04-26T02:39:14.026Z,100
2023-04-26T02:41:42.290Z,100
2023-04-26T02:44:10.545Z,100
2023-04-26T02:46:38.805Z,100
2023-04-26T02:49:07.060Z,100
2023-04-26T02:51:35.321Z,100
2023-04-26T02:54:03.579Z,100
2023-04-26T02:56:31.834Z,100
2023-04-26T02:59:00.090Z,100
2023-04-26T03:01:28.341Z,100
2023-04-26T03:03:56.600Z,100
2023-04-26T03:06:24.862Z,100
2023-04-26T03:08:53.112Z,100
2023-04-26T03:11:21.370Z,100
2023-04-26T03:13:49.628Z,100
2023-04-26T03:15:04.376Z,100
2023-04-26T03:16:17.923Z,100
2023-04-26T03:18:46.177Z,100
2023-04-26T03:23:42.694Z,100
2023-04-26T03:26:10.955Z,100
2023-04-26T03:28:39.209Z,100
2023-04-26T03:31:07.467Z,100
2023-04-26T03:33:35.729Z,100
2023-04-26T03:36:03.983Z,100
2023-04-26T03:38:32.237Z,100
2023-04-26T03:39:46.973Z,100
2023-04-26T03:41:00.514Z,100
2023-04-26T03:43:28.778Z,100
2023-04-26T03:45:57.033Z,100
2023-04-26T03:48:25.293Z,100
2023-04-26T03:50:53.552Z,100
2023-04-26T03:55:50.055Z,100
2023-04-26T03:58:18.313Z,100
2023-04-26T04:00:46.576Z,100
2023-04-26T04:03:14.832Z,100
2023-04-26T04:04:29.565Z,100
2023-04-26T04:05:43.110Z,100
2023-04-26T04:08:11.360Z,100
2023-04-26T04:10:39.624Z,100
2023-04-26T04:13:07.878Z,100
2023-04-26T04:15:36.138Z,100
2023-04-26T04:18:04.398Z,100
2023-04-26T04:20:32.651Z,100
2023-04-26T04:23:00.903Z,100
2023-04-26T04:27:57.423Z,100
2023-04-26T04:29:12.156Z,100
2023-04-26T04:30:25.702Z,100
2023-04-26T04:32:53.962Z,100
2023-04-26T04:35:22.213Z,100
2023-04-26T04:37:50.473Z,100
2023-04-26T04:40:18.729Z,100
2023-04-26T04:42:46.989Z,100
2023-04-26T04:45:15.245Z,100
2023-04-26T04:47:43.503Z,100
2023-04-26T04:50:11.751Z,100
2023-04-26T04:52:40.014Z,100
2023-04-26T04:53:54.748Z,100
2023-04-26T04:57:36.780Z,100
2023-04-26T05:00:05.031Z,100
2023-04-26T05:02:33.291Z,100
2023-04-26T05:05:01.550Z,100
2023-04-26T05:07:29.808Z,100
2023-04-26T05:09:58.063Z,100
2023-04-26T05:12:26.323Z,100
2023-04-26T05:14:54.579Z,100
2023-04-26T05:17:22.835Z,100
2023-04-26T05:18:37.565Z,100
2023-04-26T05:19:51.115Z,100
2023-04-26T05:22:19.369Z,100
2023-04-26T05:24:47.627Z,100
2023-04-26T05:29:44.148Z,100
2023-04-26T05:32:12.399Z,100
2023-04-26T05:34:40.662Z,100
2023-04-26T05:37:08.919Z,100
2023-04-26T05:39:37.176Z,100
2023-04-26T05:42:05.435Z,100
2023-04-26T05:43:20.162Z,100
2023-04-26T05:44:33.710Z,100
2023-04-26T05:47:01.966Z,100
2023-04-26T05:49:30.223Z,100
2023-04-26T05:51:58.483Z,100
2023-04-26T05:54:26.743Z,100
2023-04-26T05:56:54.996Z,100
2023-04-26T06:01:51.508Z,100
2023-04-26T06:04:19.772Z,100
2023-04-26T06:06:48.022Z,100
2023-04-26T06:08:02.752Z,100
2023-04-26T06:09:16.304Z,100
2023-04-26T06:11:44.554Z,100
2023-04-26T06:14:12.815Z,95.4
2023-04-26T06:16:41.069Z,88.3
2023-04-26T06:19:09.333Z,82.3
2023-04-26T06:21:37.589Z,81.8
2023-04-26T06:24:05.842Z,87.4
2023-04-26T06:26:34.104Z,90.7
2023-04-26T06:29:02.359Z,93.6
2023-04-26T06:32:45.343Z,91.1
2023-04-26T06:33:58.891Z,95.6
2023-04-26T06:36:27.145Z,98
2023-04-26T06:38:55.404Z,98.5
2023-04-26T06:41:23.665Z,98.7
2023-04-26T06:43:51.913Z,100
2023-04-26T06:46:20.173Z,100
2023-04-26T06:48:48.430Z,100
2023-04-26T06:51:16.684Z,100
2023-04-26T06:53:44.943Z,100
2023-04-26T06:56:13.199Z,100
2023-04-26T06:57:27.934Z,100
2023-04-26T06:58:41.479Z,100
2023-04-26T07:03:37.991Z,100
2023-04-26T07:06:06.245Z,100
2023-04-26T07:08:34.502Z,100
2023-04-26T07:11:02.764Z,99.1
2023-04-26T07:13:31.019Z,99.4
2023-04-26T07:15:59.279Z,96.9
2023-04-26T07:18:27.535Z,98.7
2023-04-26T07:20:55.788Z,93.5
2023-04-26T07:22:10.515Z,95.4
2023-04-26T07:23:24.068Z,93.3
2023-04-26T07:25:52.326Z,96.1
2023-04-26T07:28:20.578Z,92.4
2023-04-26T07:30:48.836Z,91.9
2023-04-26T07:35:45.350Z,91
2023-04-26T07:38:13.610Z,89.8
2023-04-26T07:40:41.861Z,88.7
2023-04-26T07:43:10.124Z,82.8
2023-04-26T07:45:38.384Z,80.4
2023-04-26T07:46:53.113Z,80.4
2023-04-26T07:48:06.656Z,79.6
2023-04-26T07:50:34.911Z,80.4
2023-04-26T07:53:03.172Z,78.5
2023-04-26T07:55:31.427Z,76.5
2023-04-26T07:57:59.684Z,77.6
2023-04-26T08:00:27.957Z,78.3
2023-04-26T08:02:56.202Z,78.4
2023-04-26T08:07:52.715Z,78.3
2023-04-26T08:10:20.966Z,80.9
2023-04-26T08:11:35.695Z,83.2
2023-04-26T08:12:49.248Z,84
2023-04-26T08:15:17.504Z,85.6
2023-04-26T08:17:45.763Z,89
2023-04-26T08:20:14.016Z,87.9
2023-04-26T08:22:42.273Z,85.8
2023-04-26T08:25:10.537Z,86.2
2023-04-26T08:27:38.787Z,86.2
2023-04-26T08:30:07.049Z,85.3
2023-04-26T08:32:35.308Z,83.9
2023-04-26T08:35:03.562Z,82.8
2023-04-26T08:37:31.823Z,85.1
2023-04-26T08:40:00.080Z,86
2023-04-26T08:42:28.331Z,85.4
2023-04-26T08:44:56.589Z,87
2023-04-26T08:47:24.848Z,89.7
2023-04-26T08:49:53.102Z,93.2
2023-04-26T08:52:21.366Z,95.7
2023-04-26T08:54:49.623Z,97.3
2023-04-26T08:57:17.880Z,96.3
2023-04-26T08:59:46.134Z,95.7
2023-04-26T09:01:00.884Z,92.5
2023-04-26T09:02:14.434Z,91.7
2023-04-26T09:04:42.688Z,92.5
2023-04-26T09:09:39.200Z,89.3
2023-04-26T09:12:07.461Z,84.6
2023-04-26T09:14:35.720Z,85.7
2023-04-26T09:17:03.973Z,84
2023-04-26T09:19:32.225Z,81.6
2023-04-26T09:22:00.482Z,82.1
2023-04-26T09:24:28.739Z,83.6
2023-04-26T09:25:43.472Z,77.6
2023-04-26T09:26:57.054Z,78.7
2023-04-26T09:29:25.280Z,77.1
2023-04-26T09:31:53.539Z,76.3
2023-04-26T09:34:21.790Z,76.8
2023-04-26T09:36:50.052Z,72.7
2023-04-26T09:41:46.565Z,76.2
2023-04-26T09:44:14.815Z,75.7
2023-04-26T09:46:43.076Z,75.1
2023-04-26T09:49:11.336Z,76.6
2023-04-26T09:50:26.060Z,77.8
2023-04-26T09:51:39.612Z,78.3
2023-04-26T09:54:07.861Z,75.8
2023-04-26T09:56:36.119Z,76.6
2023-04-26T09:59:04.380Z,70.1
2023-04-26T10:01:32.632Z,67.9
2023-04-26T10:04:00.893Z,72.9
2023-04-26T10:06:29.153Z,75.3
2023-04-26T10:08:57.410Z,76.8
2023-04-26T10:13:53.917Z,77.8
2023-04-26T10:15:08.650Z,85.3
2023-04-26T10:16:22.198Z,84.5
2023-04-26T10:18:50.454Z,86.5
2023-04-26T10:21:18.713Z,89.7
2023-04-26T10:23:46.965Z,91.1
2023-04-26T10:26:15.223Z,92.7
2023-04-26T10:28:43.481Z,91.5
2023-04-26T10:31:11.737Z,91.8
2023-04-26T10:33:39.991Z,92
2023-04-26T10:36:08.251Z,91.5
2023-04-26T10:38:36.511Z,90.8
2023-04-26T10:39:51.237Z,90
2023-04-26T10:43:33.270Z,88.1
2023-04-26T10:46:01.527Z,86.7
2023-04-26T10:48:29.786Z,73.4
2023-04-26T10:50:58.043Z,79.2
2023-04-26T10:53:26.295Z,74.6
2023-04-26T10:55:54.555Z,74.1
2023-04-26T10:58:22.814Z,75.7
2023-04-26T11:00:51.067Z,75.3
2023-04-26T11:03:19.320Z,71.9
2023-04-26T11:04:34.055Z,66
2023-04-26T11:05:47.604Z,69.4
2023-04-26T11:08:15.862Z,70.4
2023-04-26T11:10:44.117Z,70.9
2023-04-26T11:15:40.624Z,69.3
2023-04-26T11:18:08.882Z,66.1
2023-04-26T11:20:37.147Z,65.9
2023-04-26T11:23:05.397Z,66.7
2023-04-26T11:25:33.656Z,62.2
2023-04-26T11:28:01.911Z,58.1
2023-04-26T11:29:16.642Z,59.7
2023-04-26T11:30:30.191Z,60.7
2023-04-26T11:32:58.451Z,61.1
2023-04-26T11:35:26.706Z,62.2
2023-04-26T11:37:54.957Z,62.1
2023-04-26T11:40:23.214Z,66.1
2023-04-26T11:42:51.479Z,64.8
2023-04-26T11:47:47.990Z,64.5
2023-04-26T11:50:16.246Z,63.3
2023-04-26T11:52:44.511Z,62.1
2023-04-26T11:53:59.230Z,61
2023-04-26T11:55:12.782Z,60.3
2023-04-26T11:57:41.036Z,62.7
2023-04-26T12:00:09.293Z,60.3
2023-04-26T12:02:37.549Z,60.1
2023-04-26T12:05:05.805Z,57.9
2023-04-26T12:07:34.069Z,55.4
2023-04-26T12:10:02.324Z,62.3
2023-04-26T12:12:30.575Z,66
2023-04-26T12:14:58.837Z,67.4
2023-04-26T12:18:41.826Z,71.3
2023-04-26T12:19:55.365Z,72
2023-04-26T12:22:23.623Z,72.4
2023-04-26T12:24:51.881Z,75.8
2023-04-26T12:27:20.142Z,74.5
2023-04-26T12:29:48.394Z,72.7
2023-04-26T12:32:16.652Z,70.3
2023-04-26T12:34:44.910Z,71.4
2023-04-26T12:37:13.164Z,72
2023-04-26T12:39:41.421Z,70.3
2023-04-26T12:42:09.677Z,68.3
2023-04-26T12:43:24.410Z,62.9
2023-04-26T12:44:37.959Z,62.1
2023-04-26T12:49:34.464Z,62.3
2023-04-26T12:52:02.724Z,64
2023-04-26T12:54:30.986Z,60.4
2023-04-26T12:56:59.236Z,61.2
2023-04-26T12:59:27.496Z,58.8
2023-04-26T13:01:55.748Z,55.6
2023-04-26T13:04:24.014Z,59.3
2023-04-26T13:06:52.270Z,62.6
2023-04-26T13:08:07.000Z,67.7
2023-04-26T13:09:20.539Z,69.4
2023-04-26T13:11:48.803Z,69.9
2023-04-26T13:14:17.060Z,69.3
2023-04-26T13:16:45.307Z,70
2023-04-26T13:21:41.822Z,71.5
2023-04-26T13:24:10.077Z,75.1
2023-04-26T13:26:38.340Z,73.3
2023-04-26T13:29:06.596Z,74.5
2023-04-26T13:31:34.853Z,72
2023-04-26T13:32:49.583Z,72.4
2023-04-26T13:34:03.124Z,71
2023-04-26T13:36:31.388Z,70.4
2023-04-26T13:38:59.642Z,66.2
2023-04-26T13:41:27.899Z,66.9
2023-04-26T13:43:56.159Z,67.8
2023-04-26T13:46:24.411Z,67.3
2023-04-26T13:48:52.664Z,67.6
2023-04-26T13:53:49.183Z,66.4
2023-04-26T13:56:17.440Z,62.1
2023-04-26T13:57:32.166Z,63
2023-04-26T13:58:45.710Z,63
2023-04-26T14:01:13.974Z,64
2023-04-26T14:03:42.224Z,61.7
2023-04-26T14:06:10.487Z,62
2023-04-26T14:08:38.745Z,62.9
2023-04-26T14:11:06.995Z,65.2
2023-04-26T14:13:35.251Z,65.8
2023-04-26T14:16:03.508Z,65.5
2023-04-26T14:18:31.767Z,67.3
2023-04-26T14:21:00.020Z,68.1
2023-04-26T14:23:28.282Z,69.6
2023-04-26T14:25:56.544Z,71.4
2023-04-26T14:28:24.799Z,67
2023-04-26T14:30:53.057Z,65.8
2023-04-26T14:33:21.312Z,66.7
2023-04-26T14:35:49.572Z,67.3
2023-04-26T14:38:17.820Z,66.6
2023-04-26T14:40:46.084Z,66.5
2023-04-26T14:43:14.335Z,66.7
2023-04-26T14:45:42.592Z,66.3
2023-04-26T14:46:57.340Z,65.6
2023-04-26T14:48:10.891Z,65.9
2023-04-26T14:50:39.145Z,67.1
2023-04-26T14:55:35.660Z,68
2023-04-26T14:58:03.913Z,63.6
2023-04-26T15:00:32.172Z,65.2
2023-04-26T15:03:00.434Z,64.3
2023-04-26T15:05:28.684Z,65.4
2023-04-26T15:07:56.946Z,66.6
2023-04-26T15:10:25.199Z,67.8
2023-04-26T15:11:39.927Z,65.1
2023-04-26T15:12:53.475Z,65.1
2023-04-26T15:15:21.733Z,64.1
2023-04-26T15:17:49.993Z,63.5
2023-04-26T15:20:18.249Z,61.3
2023-04-26T15:22:46.500Z,62.7
2023-04-26T15:27:43.017Z,61.2
2023-04-26T15:30:11.269Z,58.5
2023-04-26T15:32:39.527Z,62.8
2023-04-26T15:35:07.791Z,58
2023-04-26T15:36:22.517Z,59.5
2023-04-26T15:37:36.060Z,60.3
2023-04-26T15:40:04.318Z,60
2023-04-26T15:42:32.575Z,62
2023-04-26T15:45:00.831Z,62.4
2023-04-26T15:47:29.094Z,62
2023-04-26T15:49:57.344Z,62.2
2023-04-26T15:52:25.603Z,62
2023-04-26T15:54:53.862Z,64.3
2023-04-26T15:59:50.370Z,63.8
2023-04-26T16:01:05.099Z,65
2023-04-26T16:02:18.649Z,66.3
2023-04-26T16:04:46.902Z,65.1
2023-04-26T16:07:15.163Z,65.7
2023-04-26T16:09:43.420Z,66.7
2023-04-26T16:12:11.672Z,67.7
2023-04-26T16:14:39.927Z,66.6
2023-04-26T16:17:08.188Z,67.3
2023-04-26T16:19:36.444Z,65.6
2023-04-26T16:22:04.704Z,65.6
2023-04-26T16:24:32.963Z,66.8
2023-04-26T16:25:47.687Z,65.3
2023-04-26T16:29:29.723Z,65
2023-04-26T16:31:57.985Z,65.7
2023-04-26T16:34:26.239Z,65.4
2023-04-26T16:36:54.490Z,65.8
2023-04-26T16:39:22.755Z,65.4
2023-04-26T16:41:51.009Z,64.1
2023-04-26T16:44:19.267Z,66.3
2023-04-26T16:46:47.519Z,66.2
2023-04-26T16:49:15.781Z,66.5
2023-04-26T16:50:30.510Z,66.7
2023-04-26T16:51:44.059Z,65.6
2023-04-26T16:54:12.313Z,66.6
2023-04-26T16:56:40.572Z,67.3
2023-04-26T17:01:37.084Z,66.8
2023-04-26T17:04:05.339Z,65.9
2023-04-26T17:06:33.592Z,64.7
2023-04-26T17:09:01.855Z,66.5
2023-04-26T17:11:30.112Z,66
2023-04-26T17:13:58.366Z,66.2
2023-04-26T17:15:13.100Z,69
2023-04-26T17:16:26.646Z,68.1
2023-04-26T17:18:54.896Z,68.1
2023-04-26T17:21:23.156Z,66.6
2023-04-26T17:23:51.411Z,66.4
2023-04-26T17:26:19.669Z,66.2
2023-04-26T17:28:47.930Z,67.8
2023-04-26T17:33:44.440Z,68
2023-04-26T17:36:12.696Z,69.6
2023-04-26T17:38:40.961Z,70.7
2023-04-26T17:39:55.689Z,69.4
2023-04-26T17:41:09.229Z,70.5
2023-04-26T17:43:37.493Z,70.8
2023-04-26T17:46:05.743Z,72.4
2023-04-26T17:48:34.003Z,72.3
2023-04-26T17:51:02.261Z,72.3
2023-04-26T17:53:30.519Z,71.5
2023-04-26T17:55:58.773Z,71.9
2023-04-26T17:58:27.031Z,72.8
2023-04-26T18:00:55.295Z,73.9
2023-04-26T18:04:38.281Z,73.8
2023-04-26T18:05:51.824Z,73.8
2023-04-26T18:08:20.081Z,73.8
2023-04-26T18:10:48.338Z,74.1
2023-04-26T18:13:16.599Z,75.3
2023-04-26T18:15:44.849Z,75.3
2023-04-26T18:18:13.106Z,75.2
2023-04-26T18:20:41.369Z,75.2
2023-04-26T18:23:09.625Z,76.2
2023-04-26T18:25:37.885Z,78.2
2023-04-26T18:28:06.134Z,77.7
2023-04-26T18:29:20.868Z,78.3
2023-04-26T18:30:34.416Z,79.2
2023-04-26T18:35:30.930Z,78.9
2023-04-26T18:37:58.862Z,80.2
2023-04-26T18:40:27.121Z,79.8
2023-04-26T18:42:55.372Z,80
2023-04-26T18:45:23.628Z,79.3
2023-04-26T18:47:51.890Z,79.5
2023-04-26T18:50:20.143Z,79.6
2023-04-26T18:52:48.398Z,80.4
2023-04-26T18:54:03.130Z,80.6
2023-04-26T18:55:16.678Z,80.4
2023-04-26T18:57:44.930Z,80.7
2023-04-26T19:00:13.194Z,80.8
2023-04-26T19:02:41.448Z,80.7
2023-04-26T19:07:37.957Z,81.4
2023-04-26T19:10:06.218Z,82.5
2023-04-26T19:12:34.477Z,83.1
2023-04-26T19:15:02.731Z,83.6
2023-04-26T19:17:30.983Z,83.7
2023-04-26T19:18:45.721Z,83.1
2023-04-26T19:19:59.262Z,83.7
2023-04-26T19:22:27.520Z,84.3
2023-04-26T19:24:55.773Z,85.2
2023-04-26T19:27:24.038Z,85.3
2023-04-26T19:29:52.287Z,86.2
2023-04-26T19:32:20.544Z,85.3
2023-04-26T19:34:48.806Z,84.9
2023-04-26T19:39:45.321Z,84.6
2023-04-26T19:42:13.576Z,86.2
2023-04-26T19:43:28.307Z,85.6
2023-04-26T19:44:41.860Z,85.3
2023-04-26T19:47:10.115Z,85.4
2023-04-26T19:49:38.370Z,85.3
2023-04-26T19:52:06.628Z,85.1
2023-04-26T19:54:34.888Z,85.9
2023-04-26T19:57:03.137Z,86.6
2023-04-26T19:59:31.403Z,86.9
2023-04-26T20:01:59.654Z,88.6
2023-04-26T20:04:27.909Z,87.3
2023-04-26T20:06:56.171Z,87.7
2023-04-26T20:09:24.424Z,87.7
2023-04-26T20:11:52.683Z,87.7
2023-04-26T20:14:20.939Z,87
2023-04-26T20:16:49.196Z,87.4
2023-04-26T20:19:17.456Z,88.4
2023-04-26T20:21:45.712Z,88.3
2023-04-26T20:24:13.974Z,88.2
2023-04-26T20:26:42.232Z,88
2023-04-26T20:29:10.483Z,88.4
2023-04-26T20:31:38.745Z,87.9
2023-04-26T20:32:53.487Z,88.5
2023-04-26T20:34:07.037Z,88.8
2023-04-26T20:36:35.295Z,88.4
2023-04-26T20:41:31.806Z,88.9
2023-04-26T20:44:00.066Z,89.8
2023-04-26T20:46:28.323Z,89.8
2023-04-26T20:48:56.580Z,90
2023-04-26T20:51:24.830Z,89.5
2023-04-26T20:53:53.092Z,89.3
2023-04-26T20:56:21.349Z,89.2
2023-04-26T20:57:36.083Z,90
2023-04-26T20:58:49.625Z,90
2023-04-26T21:01:17.883Z,89.9
2023-04-26T21:03:46.140Z,91
2023-04-26T21:06:14.396Z,91
2023-04-26T21:08:42.653Z,90.3
2023-04-26T21:13:39.173Z,89.6
2023-04-26T21:16:07.424Z,89.8
2023-04-26T21:18:35.685Z,90.5
2023-04-26T21:21:03.939Z,91
2023-04-26T21:22:18.668Z,91.4
2023-04-26T21:23:32.222Z,90.6
2023-04-26T21:26:00.476Z,90.7
2023-04-26T21:28:28.734Z,90.6
2023-04-26T21:30:56.994Z,90.6
2023-04-26T21:33:25.248Z,91.4
2023-04-26T21:35:53.510Z,93
2023-04-26T21:38:21.765Z,93.5
2023-04-26T21:40:50.024Z,96.1
2023-04-26T21:45:46.534Z,96.7
2023-04-26T21:47:01.269Z,96.7
2023-04-26T21:48:14.809Z,96.5
2023-04-26T21:50:43.070Z,96.7
2023-04-26T21:53:11.327Z,96.3
2023-04-26T21:55:39.583Z,96
2023-04-26T21:58:07.838Z,95.6
2023-04-26T22:00:36.096Z,95.9
2023-04-26T22:03:04.361Z,96.1
2023-04-26T22:05:32.616Z,96.7
2023-04-26T22:08:00.873Z,97.8
2023-04-26T22:10:29.133Z,97.1
2023-04-26T22:11:43.862Z,96.2
2023-04-26T22:15:25.896Z,95.7
2023-04-26T22:17:54.158Z,97.3
2023-04-26T22:20:22.407Z,97
2023-04-26T22:22:50.668Z,98
2023-04-26T22:25:18.925Z,99.6
2023-04-26T22:27:47.183Z,99.4
2023-04-26T22:30:15.443Z,98.3
2023-04-26T22:32:43.702Z,99.2
2023-04-26T22:35:11.957Z,99.5
2023-04-26T22:36:26.685Z,98.3
2023-04-26T22:37:40.225Z,98.3
2023-04-26T22:40:08.490Z,98.3
2023-04-26T22:42:36.745Z,99.4
2023-04-26T22:47:33.258Z,100
2023-04-26T22:50:01.514Z,99.6
2023-04-26T22:52:29.778Z,99.4
2023-04-26T22:54:58.033Z,99.9
2023-04-26T22:57:26.285Z,100
2023-04-26T22:59:54.542Z,99.6
2023-04-26T23:01:09.281Z,99.7
2023-04-26T23:02:22.825Z,99.7
2023-04-26T23:04:51.080Z,99.8
2023-04-26T23:07:19.343Z,99.9
2023-04-26T23:09:47.594Z,100
2023-04-26T23:12:15.851Z,100
2023-04-26T23:14:44.109Z,100
2023-04-26T23:19:40.626Z,100
2023-04-26T23:22:08.880Z,99.8
2023-04-26T23:24:37.136Z,99.5
2023-04-26T23:25:51.872Z,100
2023-04-26T23:27:05.429Z,100
2023-04-26T23:29:33.678Z,100
2023-04-26T23:32:01.928Z,100
2023-04-26T23:34:30.185Z,99.8
2023-04-26T23:36:58.446Z,98.2
2023-04-26T23:39:26.696Z,97.4
2023-04-26T23:41:54.954Z,97.4
2023-04-26T23:44:23.218Z,99.3
2023-04-26T23:46:51.469Z,99.4
2023-04-26T23:50:34.461Z,99.8
2023-04-26T23:51:48.011Z,99.7
2023-04-26T23:56:44.517Z,99.5
2023-04-26T23:59:12.775Z,100
